sensor_id;sensor_type;location;lat;lon;timestamp;temperature;humidity
27162;DHT22;54464;50.558;9.704;2023-06-04T00:01:19;14.10;80.40
27162;DHT22;54464;50.558;9.704;2023-06-04T00:03:45;14.10;79.60
27162;DHT22;54464;50.558;9.704;2023-06-04T00:06:11;14.10;80.30
27162;DHT22;54464;50.558;9.704;2023-06-04T00:08:36;14.00;79.50
27162;DHT22;54464;50.558;9.704;2023-06-04T00:11:02;14.00;79.70
27162;DHT22;54464;50.558;9.704;2023-06-04T00:13:28;13.90;79.50
27162;DHT22;54464;50.558;9.704;2023-06-04T00:15:53;14.00;79.80
27162;DHT22;54464;50.558;9.704;2023-06-04T00:18:19;14.00;79.60
27162;DHT22;54464;50.558;9.704;2023-06-04T00:20:44;14.00;79.80
27162;DHT22;54464;50.558;9.704;2023-06-04T00:23:10;13.90;80.60
27162;DHT22;54464;50.558;9.704;2023-06-04T00:25:35;14.00;81.30
27162;DHT22;54464;50.558;9.704;2023-06-04T00:28:04;14.00;81.00
27162;DHT22;54464;50.558;9.704;2023-06-04T00:30:30;13.90;81.40
27162;DHT22;54464;50.558;9.704;2023-06-04T00:32:55;13.60;84.10
27162;DHT22;54464;50.558;9.704;2023-06-04T00:35:26;13.40;85.30
27162;DHT22;54464;50.558;9.704;2023-06-04T00:37:52;13.20;85.90
27162;DHT22;54464;50.558;9.704;2023-06-04T00:40:18;13.00;86.70
27162;DHT22;54464;50.558;9.704;2023-06-04T00:42:46;12.90;87.20
27162;DHT22;54464;50.558;9.704;2023-06-04T00:45:15;12.90;87.70
27162;DHT22;54464;50.558;9.704;2023-06-04T00:47:43;12.80;88.10
27162;DHT22;54464;50.558;9.704;2023-06-04T00:50:09;12.50;89.40
27162;DHT22;54464;50.558;9.704;2023-06-04T00:52:35;12.50;90.10
27162;DHT22;54464;50.558;9.704;2023-06-04T00:55:03;12.60;89.70
27162;DHT22;54464;50.558;9.704;2023-06-04T00:57:37;12.80;89.60
27162;DHT22;54464;50.558;9.704;2023-06-04T01:00:06;12.90;89.00
27162;DHT22;54464;50.558;9.704;2023-06-04T01:02:33;12.70;89.20
27162;DHT22;54464;50.558;9.704;2023-06-04T01:05:11;12.20;90.60
27162;DHT22;54464;50.558;9.704;2023-06-04T01:07:39;12.00;91.30
27162;DHT22;54464;50.558;9.704;2023-06-04T01:10:09;12.00;91.90
27162;DHT22;54464;50.558;9.704;2023-06-04T01:12:35;12.00;92.30
27162;DHT22;54464;50.558;9.704;2023-06-04T01:15:04;11.90;92.50
27162;DHT22;54464;50.558;9.704;2023-06-04T01:18:15;11.90;92.60
27162;DHT22;54464;50.558;9.704;2023-06-04T01:21:01;11.90;92.80
27162;DHT22;54464;50.558;9.704;2023-06-04T01:23:41;11.90;92.90
27162;DHT22;54464;50.558;9.704;2023-06-04T01:26:13;11.80;92.90
27162;DHT22;54464;50.558;9.704;2023-06-04T01:28:39;11.80;92.90
27162;DHT22;54464;50.558;9.704;2023-06-04T01:31:06;11.70;93.00
27162;DHT22;54464;50.558;9.704;2023-06-04T01:33:38;11.40;94.00
27162;DHT22;54464;50.558;9.704;2023-06-04T01:36:15;11.30;94.30
27162;DHT22;54464;50.558;9.704;2023-06-04T01:38:41;11.30;94.50
27162;DHT22;54464;50.558;9.704;2023-06-04T01:41:06;11.30;94.50
27162;DHT22;54464;50.558;9.704;2023-06-04T01:43:32;11.40;94.70
27162;DHT22;54464;50.558;9.704;2023-06-04T01:46:00;11.50;94.80
27162;DHT22;54464;50.558;9.704;2023-06-04T01:48:36;11.60;94.50
27162;DHT22;54464;50.558;9.704;2023-06-04T01:51:06;11.60;94.60
27162;DHT22;54464;50.558;9.704;2023-06-04T01:53:31;11.70;94.30
27162;DHT22;54464;50.558;9.704;2023-06-04T01:56:00;11.80;94.10
27162;DHT22;54464;50.558;9.704;2023-06-04T01:58:31;11.80;94.50
27162;DHT22;54464;50.558;9.704;2023-06-04T02:00:57;11.70;94.10
27162;DHT22;54464;50.558;9.704;2023-06-04T02:03:28;11.70;94.40
27162;DHT22;54464;50.558;9.704;2023-06-04T02:06:03;11.60;94.40
27162;DHT22;54464;50.558;9.704;2023-06-04T02:08:29;11.70;94.50
27162;DHT22;54464;50.558;9.704;2023-06-04T02:10:56;11.60;94.50
27162;DHT22;54464;50.558;9.704;2023-06-04T02:13:36;11.60;94.40
27162;DHT22;54464;50.558;9.704;2023-06-04T02:16:03;11.70;94.50
27162;DHT22;54464;50.558;9.704;2023-06-04T02:18:29;11.30;94.90
27162;DHT22;54464;50.558;9.704;2023-06-04T02:20:56;11.30;95.30
27162;DHT22;54464;50.558;9.704;2023-06-04T02:23:22;11.20;95.00
27162;DHT22;54464;50.558;9.704;2023-06-04T02:25:53;11.10;95.20
27162;DHT22;54464;50.558;9.704;2023-06-04T02:28:22;10.90;95.60
27162;DHT22;54464;50.558;9.704;2023-06-04T02:30:51;11.00;95.70
27162;DHT22;54464;50.558;9.704;2023-06-04T02:33:22;10.90;95.90
27162;DHT22;54464;50.558;9.704;2023-06-04T02:35:48;11.00;96.00
27162;DHT22;54464;50.558;9.704;2023-06-04T02:38:14;11.00;95.60
27162;DHT22;54464;50.558;9.704;2023-06-04T02:40:46;10.90;95.80
27162;DHT22;54464;50.558;9.704;2023-06-04T02:43:11;10.80;96.10
27162;DHT22;54464;50.558;9.704;2023-06-04T02:45:40;10.80;96.20
27162;DHT22;54464;50.558;9.704;2023-06-04T02:48:06;10.70;96.20
27162;DHT22;54464;50.558;9.704;2023-06-04T02:50:35;10.70;96.40
27162;DHT22;54464;50.558;9.704;2023-06-04T02:53:00;10.80;96.50
27162;DHT22;54464;50.558;9.704;2023-06-04T02:55:27;10.80;96.60
27162;DHT22;54464;50.558;9.704;2023-06-04T02:57:52;10.90;96.90
27162;DHT22;54464;50.558;9.704;2023-06-04T03:00:18;10.90;96.90
27162;DHT22;54464;50.558;9.704;2023-06-04T03:02:47;10.90;96.80
27162;DHT22;54464;50.558;9.704;2023-06-04T03:05:16;10.80;96.40
27162;DHT22;54464;50.558;9.704;2023-06-04T03:07:44;10.70;96.60
27162;DHT22;54464;50.558;9.704;2023-06-04T03:10:14;10.60;96.70
27162;DHT22;54464;50.558;9.704;2023-06-04T03:12:42;10.60;97.00
27162;DHT22;54464;50.558;9.704;2023-06-04T03:15:08;10.40;97.30
27162;DHT22;54464;50.558;9.704;2023-06-04T03:17:35;10.40;97.80
27162;DHT22;54464;50.558;9.704;2023-06-04T03:20:01;10.40;97.90
27162;DHT22;54464;50.558;9.704;2023-06-04T03:22:29;10.60;97.40
27162;DHT22;54464;50.558;9.704;2023-06-04T03:24:55;10.60;97.40
27162;DHT22;54464;50.558;9.704;2023-06-04T03:27:21;10.60;97.20
27162;DHT22;54464;50.558;9.704;2023-06-04T03:29:46;10.70;97.20
27162;DHT22;54464;50.558;9.704;2023-06-04T03:32:17;10.70;96.90
27162;DHT22;54464;50.558;9.704;2023-06-04T03:34:45;10.60;97.00
27162;DHT22;54464;50.558;9.704;2023-06-04T03:37:11;10.50;97.10
27162;DHT22;54464;50.558;9.704;2023-06-04T03:39:37;10.40;97.30
27162;DHT22;54464;50.558;9.704;2023-06-04T03:42:03;10.20;97.70
27162;DHT22;54464;50.558;9.704;2023-06-04T03:44:30;10.00;98.10
27162;DHT22;54464;50.558;9.704;2023-06-04T03:46:56;9.90;98.40
27162;DHT22;54464;50.558;9.704;2023-06-04T03:49:27;9.90;98.40
27162;DHT22;54464;50.558;9.704;2023-06-04T03:51:53;9.90;98.40
27162;DHT22;54464;50.558;9.704;2023-06-04T03:54:22;9.80;98.60
27162;DHT22;54464;50.558;9.704;2023-06-04T03:56:51;9.90;98.60
27162;DHT22;54464;50.558;9.704;2023-06-04T03:59:16;10.00;98.40
27162;DHT22;54464;50.558;9.704;2023-06-04T04:01:43;10.10;98.80
27162;DHT22;54464;50.558;9.704;2023-06-04T04:04:12;10.20;98.10
27162;DHT22;54464;50.558;9.704;2023-06-04T04:06:38;10.00;98.30
27162;DHT22;54464;50.558;9.704;2023-06-04T04:09:03;9.90;98.80
27162;DHT22;54464;50.558;9.704;2023-06-04T04:11:31;9.90;98.80
27162;DHT22;54464;50.558;9.704;2023-06-04T04:13:56;10.00;98.70
27162;DHT22;54464;50.558;9.704;2023-06-04T04:16:22;10.00;98.70
27162;DHT22;54464;50.558;9.704;2023-06-04T04:18:49;10.20;98.70
27162;DHT22;54464;50.558;9.704;2023-06-04T04:21:14;10.30;98.40
27162;DHT22;54464;50.558;9.704;2023-06-04T04:23:48;10.20;98.30
27162;DHT22;54464;50.558;9.704;2023-06-04T04:26:17;10.30;98.20
27162;DHT22;54464;50.558;9.704;2023-06-04T04:28:43;10.20;98.30
27162;DHT22;54464;50.558;9.704;2023-06-04T04:31:11;10.20;98.50
27162;DHT22;54464;50.558;9.704;2023-06-04T04:33:42;10.20;98.40
27162;DHT22;54464;50.558;9.704;2023-06-04T04:36:08;10.20;98.80
27162;DHT22;54464;50.558;9.704;2023-06-04T04:38:37;10.30;98.70
27162;DHT22;54464;50.558;9.704;2023-06-04T04:41:03;10.40;98.60
27162;DHT22;54464;50.558;9.704;2023-06-04T04:43:33;10.20;98.60
27162;DHT22;54464;50.558;9.704;2023-06-04T04:46:11;10.30;98.70
27162;DHT22;54464;50.558;9.704;2023-06-04T04:48:40;10.40;98.60
27162;DHT22;54464;50.558;9.704;2023-06-04T04:51:07;10.30;98.70
27162;DHT22;54464;50.558;9.704;2023-06-04T04:53:33;10.50;98.70
27162;DHT22;54464;50.558;9.704;2023-06-04T04:55:58;10.40;98.50
27162;DHT22;54464;50.558;9.704;2023-06-04T04:58:24;10.30;98.10
27162;DHT22;54464;50.558;9.704;2023-06-04T05:00:53;10.20;99.00
27162;DHT22;54464;50.558;9.704;2023-06-04T05:03:18;9.50;99.90
27162;DHT22;54464;50.558;9.704;2023-06-04T05:05:44;9.50;99.90
27162;DHT22;54464;50.558;9.704;2023-06-04T05:08:12;9.60;99.80
27162;DHT22;54464;50.558;9.704;2023-06-04T05:10:40;10.00;99.50
27162;DHT22;54464;50.558;9.704;2023-06-04T05:13:06;10.20;97.90
27162;DHT22;54464;50.558;9.704;2023-06-04T05:15:31;10.50;97.40
27162;DHT22;54464;50.558;9.704;2023-06-04T05:17:57;10.70;96.80
27162;DHT22;54464;50.558;9.704;2023-06-04T05:20:31;10.80;96.40
27162;DHT22;54464;50.558;9.704;2023-06-04T05:22:57;11.10;96.00
27162;DHT22;54464;50.558;9.704;2023-06-04T05:25:22;11.20;95.80
27162;DHT22;54464;50.558;9.704;2023-06-04T05:27:48;11.30;95.50
27162;DHT22;54464;50.558;9.704;2023-06-04T05:30:15;11.40;95.30
27162;DHT22;54464;50.558;9.704;2023-06-04T05:32:44;11.50;95.10
27162;DHT22;54464;50.558;9.704;2023-06-04T05:35:15;11.40;95.80
27162;DHT22;54464;50.558;9.704;2023-06-04T05:37:42;11.40;97.00
27162;DHT22;54464;50.558;9.704;2023-06-04T05:40:11;11.10;97.70
27162;DHT22;54464;50.558;9.704;2023-06-04T05:42:38;11.10;97.80
27162;DHT22;54464;50.558;9.704;2023-06-04T05:45:04;11.00;97.70
27162;DHT22;54464;50.558;9.704;2023-06-04T05:47:30;11.00;96.90
27162;DHT22;54464;50.558;9.704;2023-06-04T05:49:56;11.20;97.10
27162;DHT22;54464;50.558;9.704;2023-06-04T05:52:28;11.20;96.50
27162;DHT22;54464;50.558;9.704;2023-06-04T05:54:53;11.40;96.40
27162;DHT22;54464;50.558;9.704;2023-06-04T05:57:20;11.50;95.50
27162;DHT22;54464;50.558;9.704;2023-06-04T05:59:52;11.50;96.70
27162;DHT22;54464;50.558;9.704;2023-06-04T06:02:20;11.70;96.70
27162;DHT22;54464;50.558;9.704;2023-06-04T06:04:45;11.90;95.90
27162;DHT22;54464;50.558;9.704;2023-06-04T06:07:11;12.00;96.10
27162;DHT22;54464;50.558;9.704;2023-06-04T06:09:47;11.90;96.30
27162;DHT22;54464;50.558;9.704;2023-06-04T06:12:12;11.80;95.90
27162;DHT22;54464;50.558;9.704;2023-06-04T06:14:38;11.90;95.50
27162;DHT22;54464;50.558;9.704;2023-06-04T06:17:04;12.00;95.50
27162;DHT22;54464;50.558;9.704;2023-06-04T06:19:53;12.10;95.50
27162;DHT22;54464;50.558;9.704;2023-06-04T06:22:18;12.20;95.10
27162;DHT22;54464;50.558;9.704;2023-06-04T06:24:49;12.30;95.00
27162;DHT22;54464;50.558;9.704;2023-06-04T06:27:15;12.40;94.80
27162;DHT22;54464;50.558;9.704;2023-06-04T06:29:42;12.50;95.20
27162;DHT22;54464;50.558;9.704;2023-06-04T06:32:10;12.60;95.00
27162;DHT22;54464;50.558;9.704;2023-06-04T06:34:44;12.70;95.50
27162;DHT22;54464;50.558;9.704;2023-06-04T06:37:10;12.90;95.30
27162;DHT22;54464;50.558;9.704;2023-06-04T06:39:48;13.00;94.60
27162;DHT22;54464;50.558;9.704;2023-06-04T06:42:14;13.20;94.10
27162;DHT22;54464;50.558;9.704;2023-06-04T06:44:43;13.40;93.80
27162;DHT22;54464;50.558;9.704;2023-06-04T06:47:12;13.50;93.20
27162;DHT22;54464;50.558;9.704;2023-06-04T06:49:43;13.70;93.60
27162;DHT22;54464;50.558;9.704;2023-06-04T06:52:17;13.90;93.10
27162;DHT22;54464;50.558;9.704;2023-06-04T06:54:45;14.00;93.50
27162;DHT22;54464;50.558;9.704;2023-06-04T06:57:11;14.20;93.70
27162;DHT22;54464;50.558;9.704;2023-06-04T06:59:37;14.30;92.90
27162;DHT22;54464;50.558;9.704;2023-06-04T07:02:03;14.40;92.30
27162;DHT22;54464;50.558;9.704;2023-06-04T07:07:20;14.70;92.30
27162;DHT22;54464;50.558;9.704;2023-06-04T07:09:46;14.80;92.50
27162;DHT22;54464;50.558;9.704;2023-06-04T07:12:19;15.00;92.30
27162;DHT22;54464;50.558;9.704;2023-06-04T07:14:44;15.10;92.00
27162;DHT22;54464;50.558;9.704;2023-06-04T07:17:10;15.20;92.10
27162;DHT22;54464;50.558;9.704;2023-06-04T07:19:39;15.30;91.80
27162;DHT22;54464;50.558;9.704;2023-06-04T07:22:04;15.50;91.90
27162;DHT22;54464;50.558;9.704;2023-06-04T07:24:30;15.60;91.50
27162;DHT22;54464;50.558;9.704;2023-06-04T07:26:59;15.70;91.50
27162;DHT22;54464;50.558;9.704;2023-06-04T07:29:24;15.80;91.10
27162;DHT22;54464;50.558;9.704;2023-06-04T07:31:50;15.80;91.60
27162;DHT22;54464;50.558;9.704;2023-06-04T07:34:15;16.00;90.40
27162;DHT22;54464;50.558;9.704;2023-06-04T07:36:41;16.20;89.50
27162;DHT22;54464;50.558;9.704;2023-06-04T07:39:15;16.30;90.20
27162;DHT22;54464;50.558;9.704;2023-06-04T07:41:43;16.50;90.40
27162;DHT22;54464;50.558;9.704;2023-06-04T07:44:09;16.60;87.20
27162;DHT22;54464;50.558;9.704;2023-06-04T07:46:34;16.70;87.30
27162;DHT22;54464;50.558;9.704;2023-06-04T07:49:00;16.80;88.50
27162;DHT22;54464;50.558;9.704;2023-06-04T07:51:37;16.90;86.20
27162;DHT22;54464;50.558;9.704;2023-06-04T07:54:23;17.00;88.60
27162;DHT22;54464;50.558;9.704;2023-06-04T07:56:49;17.10;87.20
27162;DHT22;54464;50.558;9.704;2023-06-04T07:59:14;17.20;83.50
27162;DHT22;54464;50.558;9.704;2023-06-04T08:01:45;17.40;79.80
27162;DHT22;54464;50.558;9.704;2023-06-04T08:04:26;17.40;78.40
27162;DHT22;54464;50.558;9.704;2023-06-04T08:06:52;17.60;77.90
27162;DHT22;54464;50.558;9.704;2023-06-04T08:09:21;17.60;78.00
27162;DHT22;54464;50.558;9.704;2023-06-04T08:12:00;17.60;76.70
27162;DHT22;54464;50.558;9.704;2023-06-04T08:14:25;17.70;75.60
27162;DHT22;54464;50.558;9.704;2023-06-04T08:16:53;17.80;76.70
27162;DHT22;54464;50.558;9.704;2023-06-04T08:19:28;17.90;77.80
27162;DHT22;54464;50.558;9.704;2023-06-04T08:22:02;17.90;75.50
27162;DHT22;54464;50.558;9.704;2023-06-04T08:24:27;18.00;76.20
27162;DHT22;54464;50.558;9.704;2023-06-04T08:26:53;18.10;73.40
27162;DHT22;54464;50.558;9.704;2023-06-04T08:29:18;18.10;74.70
27162;DHT22;54464;50.558;9.704;2023-06-04T08:31:50;18.20;73.60
27162;DHT22;54464;50.558;9.704;2023-06-04T08:34:22;18.40;72.50
27162;DHT22;54464;50.558;9.704;2023-06-04T08:36:56;18.40;71.30
27162;DHT22;54464;50.558;9.704;2023-06-04T08:39:25;18.40;70.10
27162;DHT22;54464;50.558;9.704;2023-06-04T08:41:59;18.50;74.50
27162;DHT22;54464;50.558;9.704;2023-06-04T08:44:36;18.60;72.40
27162;DHT22;54464;50.558;9.704;2023-06-04T08:47:08;18.60;69.50
27162;DHT22;54464;50.558;9.704;2023-06-04T08:49:35;18.60;70.70
27162;DHT22;54464;50.558;9.704;2023-06-04T08:52:04;18.70;73.20
27162;DHT22;54464;50.558;9.704;2023-06-04T08:54:32;18.80;73.90
27162;DHT22;54464;50.558;9.704;2023-06-04T08:56:57;18.90;68.90
27162;DHT22;54464;50.558;9.704;2023-06-04T08:59:23;19.00;72.30
27162;DHT22;54464;50.558;9.704;2023-06-04T09:01:53;19.10;71.80
27162;DHT22;54464;50.558;9.704;2023-06-04T09:04:19;19.10;70.20
27162;DHT22;54464;50.558;9.704;2023-06-04T09:06:45;19.20;70.50
27162;DHT22;54464;50.558;9.704;2023-06-04T09:09:12;19.30;73.10
27162;DHT22;54464;50.558;9.704;2023-06-04T09:11:54;19.50;71.90
27162;DHT22;54464;50.558;9.704;2023-06-04T09:14:20;19.60;72.70
27162;DHT22;54464;50.558;9.704;2023-06-04T09:16:47;19.60;68.80
27162;DHT22;54464;50.558;9.704;2023-06-04T09:19:13;19.70;71.80
27162;DHT22;54464;50.558;9.704;2023-06-04T09:21:47;19.70;68.70
27162;DHT22;54464;50.558;9.704;2023-06-04T09:24:13;19.80;68.70
27162;DHT22;54464;50.558;9.704;2023-06-04T09:26:39;19.90;71.60
27162;DHT22;54464;50.558;9.704;2023-06-04T09:29:05;19.90;70.40
27162;DHT22;54464;50.558;9.704;2023-06-04T09:31:31;20.00;71.00
27162;DHT22;54464;50.558;9.704;2023-06-04T09:34:02;20.00;66.30
27162;DHT22;54464;50.558;9.704;2023-06-04T09:36:34;20.10;69.40
27162;DHT22;54464;50.558;9.704;2023-06-04T09:39:14;20.20;68.70
27162;DHT22;54464;50.558;9.704;2023-06-04T09:41:39;20.30;69.20
27162;DHT22;54464;50.558;9.704;2023-06-04T09:44:05;20.40;67.60
27162;DHT22;54464;50.558;9.704;2023-06-04T09:46:36;20.50;69.00
27162;DHT22;54464;50.558;9.704;2023-06-04T09:49:05;20.60;68.70
27162;DHT22;54464;50.558;9.704;2023-06-04T09:51:32;20.60;66.90
27162;DHT22;54464;50.558;9.704;2023-06-04T09:54:00;20.70;67.40
27162;DHT22;54464;50.558;9.704;2023-06-04T09:56:27;20.80;69.60
27162;DHT22;54464;50.558;9.704;2023-06-04T09:59:00;20.90;69.10
27162;DHT22;54464;50.558;9.704;2023-06-04T10:01:28;20.90;67.60
27162;DHT22;54464;50.558;9.704;2023-06-04T10:03:55;20.90;66.90
27162;DHT22;54464;50.558;9.704;2023-06-04T10:06:45;21.00;67.30
27162;DHT22;54464;50.558;9.704;2023-06-04T10:09:12;21.40;69.30
27162;DHT22;54464;50.558;9.704;2023-06-04T10:11:47;21.20;64.50
27162;DHT22;54464;50.558;9.704;2023-06-04T10:17:15;21.50;66.70
27162;DHT22;54464;50.558;9.704;2023-06-04T10:19:43;21.80;69.00
27162;DHT22;54464;50.558;9.704;2023-06-04T10:22:10;21.90;66.40
27162;DHT22;54464;50.558;9.704;2023-06-04T10:24:37;22.00;62.30
27162;DHT22;54464;50.558;9.704;2023-06-04T10:27:03;21.90;63.50
27162;DHT22;54464;50.558;9.704;2023-06-04T10:29:36;22.00;65.40
27162;DHT22;54464;50.558;9.704;2023-06-04T10:32:02;22.20;63.60
27162;DHT22;54464;50.558;9.704;2023-06-04T10:34:28;22.30;62.80
27162;DHT22;54464;50.558;9.704;2023-06-04T10:36:53;22.50;60.20
27162;DHT22;54464;50.558;9.704;2023-06-04T10:39:29;22.90;62.60
27162;DHT22;54464;50.558;9.704;2023-06-04T10:42:01;23.10;60.70
27162;DHT22;54464;50.558;9.704;2023-06-04T10:44:31;23.20;61.10
27162;DHT22;54464;50.558;9.704;2023-06-04T10:46:57;23.40;61.20
27162;DHT22;54464;50.558;9.704;2023-06-04T10:49:30;23.60;61.00
27162;DHT22;54464;50.558;9.704;2023-06-04T10:51:56;23.90;59.80
27162;DHT22;54464;50.558;9.704;2023-06-04T10:54:28;24.20;58.10
27162;DHT22;54464;50.558;9.704;2023-06-04T10:56:54;24.30;59.70
27162;DHT22;54464;50.558;9.704;2023-06-04T10:59:20;24.70;60.30
27162;DHT22;54464;50.558;9.704;2023-06-04T11:01:47;24.80;57.10
27162;DHT22;54464;50.558;9.704;2023-06-04T11:04:24;24.80;56.00
27162;DHT22;54464;50.558;9.704;2023-06-04T11:07:03;24.70;54.50
27162;DHT22;54464;50.558;9.704;2023-06-04T11:09:30;24.90;55.50
27162;DHT22;54464;50.558;9.704;2023-06-04T11:11:59;24.60;53.50
27162;DHT22;54464;50.558;9.704;2023-06-04T11:14:25;24.80;56.60
27162;DHT22;54464;50.558;9.704;2023-06-04T11:16:51;24.90;57.30
27162;DHT22;54464;50.558;9.704;2023-06-04T11:19:17;25.30;57.00
27162;DHT22;54464;50.558;9.704;2023-06-04T11:21:43;25.40;53.10
27162;DHT22;54464;50.558;9.704;2023-06-04T11:24:11;25.60;55.20
27162;DHT22;54464;50.558;9.704;2023-06-04T11:26:37;25.70;55.70
27162;DHT22;54464;50.558;9.704;2023-06-04T11:29:28;25.90;54.20
27162;DHT22;54464;50.558;9.704;2023-06-04T11:31:52;26.30;51.80
27162;DHT22;54464;50.558;9.704;2023-06-04T11:34:31;26.60;50.70
27162;DHT22;54464;50.558;9.704;2023-06-04T11:37:09;26.50;52.10
27162;DHT22;54464;50.558;9.704;2023-06-04T11:39:35;26.50;50.40
27162;DHT22;54464;50.558;9.704;2023-06-04T11:42:07;26.70;53.30
27162;DHT22;54464;50.558;9.704;2023-06-04T11:44:33;26.90;54.60
27162;DHT22;54464;50.558;9.704;2023-06-04T11:46:59;26.90;50.70
27162;DHT22;54464;50.558;9.704;2023-06-04T11:49:35;27.10;52.10
27162;DHT22;54464;50.558;9.704;2023-06-04T11:52:04;27.50;51.50
27162;DHT22;54464;50.558;9.704;2023-06-04T11:54:30;28.60;50.10
27162;DHT22;54464;50.558;9.704;2023-06-04T11:57:05;30.20;49.00
27162;DHT22;54464;50.558;9.704;2023-06-04T11:59:34;30.50;50.10
27162;DHT22;54464;50.558;9.704;2023-06-04T12:02:03;31.80;45.50
27162;DHT22;54464;50.558;9.704;2023-06-04T12:04:33;32.00;43.00
27162;DHT22;54464;50.558;9.704;2023-06-04T12:07:07;33.20;45.90
27162;DHT22;54464;50.558;9.704;2023-06-04T12:09:34;34.20;44.10
27162;DHT22;54464;50.558;9.704;2023-06-04T12:12:05;34.00;43.60
27162;DHT22;54464;50.558;9.704;2023-06-04T12:14:31;34.10;41.60
27162;DHT22;54464;50.558;9.704;2023-06-04T12:17:06;34.30;43.70
27162;DHT22;54464;50.558;9.704;2023-06-04T12:19:32;35.00;43.10
27162;DHT22;54464;50.558;9.704;2023-06-04T12:22:02;35.80;42.60
27162;DHT22;54464;50.558;9.704;2023-06-04T12:27:26;36.50;40.50
27162;DHT22;54464;50.558;9.704;2023-06-04T12:30:04;37.20;42.10
27162;DHT22;54464;50.558;9.704;2023-06-04T12:32:36;38.10;40.40
27162;DHT22;54464;50.558;9.704;2023-06-04T12:35:11;37.60;39.30
27162;DHT22;54464;50.558;9.704;2023-06-04T12:37:36;37.00;39.00
27162;DHT22;54464;50.558;9.704;2023-06-04T12:40:02;37.10;38.80
27162;DHT22;54464;50.558;9.704;2023-06-04T12:42:32;37.60;40.00
27162;DHT22;54464;50.558;9.704;2023-06-04T12:45:18;37.60;39.50
27162;DHT22;54464;50.558;9.704;2023-06-04T12:47:43;39.00;39.10
27162;DHT22;54464;50.558;9.704;2023-06-04T12:50:15;39.10;37.80
27162;DHT22;54464;50.558;9.704;2023-06-04T12:52:40;39.60;38.30
27162;DHT22;54464;50.558;9.704;2023-06-04T12:55:09;39.70;38.80
27162;DHT22;54464;50.558;9.704;2023-06-04T12:57:35;37.30;40.10
27162;DHT22;54464;50.558;9.704;2023-06-04T13:00:14;36.00;41.50
27162;DHT22;54464;50.558;9.704;2023-06-04T13:02:41;35.30;39.00
27162;DHT22;54464;50.558;9.704;2023-06-04T13:05:07;35.60;39.70
27162;DHT22;54464;50.558;9.704;2023-06-04T13:07:38;35.50;41.10
27162;DHT22;54464;50.558;9.704;2023-06-04T13:10:10;34.90;43.10
27162;DHT22;54464;50.558;9.704;2023-06-04T13:12:35;35.60;42.10
27162;DHT22;54464;50.558;9.704;2023-06-04T13:15:01;35.70;43.90
27162;DHT22;54464;50.558;9.704;2023-06-04T13:17:28;34.50;43.50
27162;DHT22;54464;50.558;9.704;2023-06-04T13:20:07;34.30;41.80
27162;DHT22;54464;50.558;9.704;2023-06-04T13:22:32;33.60;45.90
27162;DHT22;54464;50.558;9.704;2023-06-04T13:24:58;33.30;44.60
27162;DHT22;54464;50.558;9.704;2023-06-04T13:27:29;33.00;45.10
27162;DHT22;54464;50.558;9.704;2023-06-04T13:29:57;32.60;43.50
27162;DHT22;54464;50.558;9.704;2023-06-04T13:32:23;32.50;45.90
27162;DHT22;54464;50.558;9.704;2023-06-04T13:34:48;32.40;45.80
27162;DHT22;54464;50.558;9.704;2023-06-04T13:37:14;32.00;46.90
27162;DHT22;54464;50.558;9.704;2023-06-04T13:39:42;32.00;44.50
27162;DHT22;54464;50.558;9.704;2023-06-04T13:42:08;32.00;45.40
27162;DHT22;54464;50.558;9.704;2023-06-04T13:44:33;32.30;46.50
27162;DHT22;54464;50.558;9.704;2023-06-04T13:46:59;32.30;46.30
27162;DHT22;54464;50.558;9.704;2023-06-04T13:49:25;30.60;46.90
27162;DHT22;54464;50.558;9.704;2023-06-04T13:51:53;31.10;47.90
27162;DHT22;54464;50.558;9.704;2023-06-04T13:54:18;31.20;46.50
27162;DHT22;54464;50.558;9.704;2023-06-04T13:56:44;32.60;46.10
27162;DHT22;54464;50.558;9.704;2023-06-04T13:59:10;33.00;47.50
27162;DHT22;54464;50.558;9.704;2023-06-04T14:01:35;32.60;46.00
27162;DHT22;54464;50.558;9.704;2023-06-04T14:04:01;32.80;46.50
27162;DHT22;54464;50.558;9.704;2023-06-04T14:06:30;33.20;45.50
27162;DHT22;54464;50.558;9.704;2023-06-04T14:08:56;33.80;45.00
27162;DHT22;54464;50.558;9.704;2023-06-04T14:11:21;33.70;45.20
27162;DHT22;54464;50.558;9.704;2023-06-04T14:13:49;33.60;47.00
27162;DHT22;54464;50.558;9.704;2023-06-04T14:16:17;34.00;44.40
27162;DHT22;54464;50.558;9.704;2023-06-04T14:18:43;35.70;43.50
27162;DHT22;54464;50.558;9.704;2023-06-04T14:21:09;35.20;44.00
27162;DHT22;54464;50.558;9.704;2023-06-04T14:23:34;36.30;42.20
27162;DHT22;54464;50.558;9.704;2023-06-04T14:26:00;36.20;42.30
27162;DHT22;54464;50.558;9.704;2023-06-04T14:28:26;35.60;44.00
27162;DHT22;54464;50.558;9.704;2023-06-04T14:30:52;35.90;43.00
27162;DHT22;54464;50.558;9.704;2023-06-04T14:33:17;35.60;42.80
27162;DHT22;54464;50.558;9.704;2023-06-04T14:35:43;35.50;45.60
27162;DHT22;54464;50.558;9.704;2023-06-04T14:38:13;36.00;42.40
27162;DHT22;54464;50.558;9.704;2023-06-04T14:40:39;35.90;43.20
27162;DHT22;54464;50.558;9.704;2023-06-04T14:43:07;36.20;42.60
27162;DHT22;54464;50.558;9.704;2023-06-04T14:45:32;35.20;42.40
27162;DHT22;54464;50.558;9.704;2023-06-04T14:47:58;37.10;42.30
27162;DHT22;54464;50.558;9.704;2023-06-04T14:50:23;37.30;42.20
27162;DHT22;54464;50.558;9.704;2023-06-04T14:52:50;37.60;42.10
27162;DHT22;54464;50.558;9.704;2023-06-04T14:55:15;38.40;41.10
27162;DHT22;54464;50.558;9.704;2023-06-04T14:57:41;37.70;41.70
27162;DHT22;54464;50.558;9.704;2023-06-04T15:00:07;38.00;41.50
27162;DHT22;54464;50.558;9.704;2023-06-04T15:02:33;38.20;39.50
27162;DHT22;54464;50.558;9.704;2023-06-04T15:04:58;37.50;39.00
27162;DHT22;54464;50.558;9.704;2023-06-04T15:07:24;38.20;39.40
27162;DHT22;54464;50.558;9.704;2023-06-04T15:09:50;36.90;41.20
27162;DHT22;54464;50.558;9.704;2023-06-04T15:12:18;38.50;39.90
27162;DHT22;54464;50.558;9.704;2023-06-04T15:14:45;38.40;38.80
27162;DHT22;54464;50.558;9.704;2023-06-04T15:17:10;39.30;37.60
27162;DHT22;54464;50.558;9.704;2023-06-04T15:19:37;40.00;38.20
27162;DHT22;54464;50.558;9.704;2023-06-04T15:22:23;39.40;38.20
27162;DHT22;54464;50.558;9.704;2023-06-04T15:24:50;38.80;39.00
27162;DHT22;54464;50.558;9.704;2023-06-04T15:27:15;38.30;39.80
27162;DHT22;54464;50.558;9.704;2023-06-04T15:29:42;38.60;39.20
27162;DHT22;54464;50.558;9.704;2023-06-04T15:32:08;38.70;38.80
27162;DHT22;54464;50.558;9.704;2023-06-04T15:34:33;39.20;39.00
27162;DHT22;54464;50.558;9.704;2023-06-04T15:36:59;39.80;37.30
27162;DHT22;54464;50.558;9.704;2023-06-04T15:39:27;38.70;38.20
27162;DHT22;54464;50.558;9.704;2023-06-04T15:42:28;38.90;38.90
27162;DHT22;54464;50.558;9.704;2023-06-04T15:44:53;39.30;37.90
27162;DHT22;54464;50.558;9.704;2023-06-04T15:47:19;39.40;37.30
27162;DHT22;54464;50.558;9.704;2023-06-04T15:49:50;39.40;37.60